MAPA DE AEROPUERTO

INFORMACIÓN METAR y TAF

METAR FOR GCLA
ADDS - METARS form results

(0548 UTC 03 March 2021)
Data provider http://aviationweather.gov/metar/data/
 
METAR text: GCLA 030530Z AUTO 35003KT 280V030 9999 OVC030 18/12 Q1022
Conditions at: GCLA (LA PALMA AIRPORT, ES) observed 0530 UTC 03 March 2021
Temperature: 18.0°C (64°F)
Dewpoint: 12.0°C (54°F) [RH = 68%]
Pressure (altimeter): 30.18 inches Hg (1022.0 mb)
Winds: from the N (350 degrees) at 3 MPH (3 knots; 1.5 m/s)
Visibility: 6 or more miles (10+ km)
Ceiling: 3000 feet AGL
Clouds: overcast cloud deck at 3000 feet AGL
Weather: no significant weather observed at this time

METAR text: GCLA 030500Z AUTO 32006KT 9999 BKN028 OVC035 18/13 Q1021
Conditions at: GCLA (LA PALMA AIRPORT, ES) observed 0500 UTC 03 March 2021
Temperature: 18.0°C (64°F)
Dewpoint: 13.0°C (55°F) [RH = 73%]
Pressure (altimeter): 30.15 inches Hg (1021.0 mb)
Winds: from the NW (320 degrees) at 7 MPH (6 knots; 3.1 m/s)
Visibility: 6 or more miles (10+ km)
Ceiling: 2800 feet AGL
Clouds: broken clouds at 2800 feet AGL
overcast cloud deck at 3500 feet AGL
Weather: no significant weather observed at this time

Forecast for: GCLA (LA PALMA AIRPORT, ES)
Text: TAF GCLA 030200Z 0303/0403 30006KT 9999 BKN030 TX21/0314Z TN16/0307Z
Forecast period: 0300 UTC 03 March 2021 to 0300 UTC 04 March 2021
Forecast type: FROM: standard forecast or significant change
Winds: from the WNW (300 degrees) at 7 MPH (6 knots; 3.1 m/s)
Visibility: 6 or more miles (10+ km)
Ceiling: 3000 feet AGL
Clouds: broken clouds at 3000 feet AGL
Weather: no significant weather forecast for this period
Text: PROB30
Forecast period: 0300 to 0800 UTC 03 March 2021
Forecast type: TEMPORARY: The following changes expected for less than half the time period
Visibility: missing
Ceiling: unknown
Clouds: missing
Weather: DZ  (moderate drizzle)